createdAt,value
2022-08-05T00:01:29.262Z,24.30
2022-08-05T00:03:57.006Z,24.20
2022-08-05T00:06:32.219Z,24.10
2022-08-05T00:09:00.535Z,24.10
2022-08-05T00:11:34.441Z,24.10
2022-08-05T00:14:12.887Z,24.10
2022-08-05T00:16:52.712Z,24.00
2022-08-05T00:19:25.106Z,24.00
2022-08-05T00:22:01.280Z,23.90
2022-08-05T00:24:31.106Z,23.80
2022-08-05T00:26:59.667Z,23.80
2022-08-05T00:29:27.641Z,23.70
2022-08-05T00:32:12.499Z,23.70
2022-08-05T00:35:03.641Z,23.60
2022-08-05T00:37:50.496Z,23.60
2022-08-05T00:40:26.790Z,23.60
2022-08-05T00:43:01.351Z,23.50
2022-08-05T00:45:38.905Z,23.40
2022-08-05T00:48:16.220Z,23.40
2022-08-05T00:50:46.136Z,23.40
2022-08-05T00:53:45.031Z,23.30
2022-08-05T00:56:03.338Z,23.30
2022-08-05T00:58:30.255Z,23.20
2022-08-05T01:00:57.310Z,23.10
2022-08-05T01:03:30.898Z,23.00
2022-08-05T01:06:01.201Z,22.90
2022-08-05T01:08:40.259Z,22.90
2022-08-05T01:11:22.118Z,22.80
2022-08-05T01:14:17.896Z,22.70
2022-08-05T01:17:05.274Z,22.70
2022-08-05T01:20:00.681Z,22.80
2022-08-05T01:22:57.400Z,22.80
2022-08-05T01:25:54.257Z,22.80
2022-08-05T01:28:36.368Z,22.80
2022-08-05T01:31:16.770Z,22.80
2022-08-05T01:33:56.618Z,22.90
2022-08-05T01:36:29.439Z,22.80
2022-08-05T01:39:01.154Z,22.60
2022-08-05T01:41:33.211Z,22.40
2022-08-05T01:44:02.134Z,22.40
2022-08-05T01:46:42.466Z,22.30
2022-08-05T01:49:23.620Z,22.30
2022-08-05T01:51:55.932Z,22.30
2022-08-05T01:54:29.196Z,22.30
2022-08-05T01:58:09.266Z,22.30
2022-08-05T01:59:48.366Z,22.30
2022-08-05T02:02:17.983Z,22.30
2022-08-05T02:04:49.531Z,22.40
2022-08-05T02:07:22.203Z,22.40
2022-08-05T02:09:50.350Z,22.50
2022-08-05T02:12:32.887Z,22.60
2022-08-05T02:15:19.721Z,22.80
2022-08-05T02:18:32.100Z,23.00
2022-08-05T02:20:53.624Z,23.10
2022-08-05T02:23:33.769Z,23.20
2022-08-05T02:26:06.233Z,23.10
2022-08-05T02:28:41.694Z,23.00
2022-08-05T02:31:17.170Z,23.00
2022-08-05T02:33:58.214Z,23.00
2022-08-05T02:36:27.266Z,22.90
2022-08-05T02:38:57.534Z,22.90
2022-08-05T02:41:28.865Z,22.80
2022-08-05T02:44:13.276Z,22.70
2022-08-05T02:46:53.779Z,22.80
2022-08-05T02:49:36.037Z,22.70
2022-08-05T02:52:08.009Z,22.80
2022-08-05T02:54:41.676Z,22.80
2022-08-05T02:58:12.296Z,22.80
2022-08-05T03:00:02.761Z,22.70
2022-08-05T03:02:35.073Z,22.70
2022-08-05T03:05:04.250Z,22.60
2022-08-05T03:08:00.115Z,22.60
2022-08-05T03:10:24.392Z,22.60
2022-08-05T03:12:54.216Z,22.60
2022-08-05T03:15:23.414Z,22.50
2022-08-05T03:17:54.189Z,22.50
2022-08-05T03:20:24.547Z,22.50
2022-08-05T03:22:52.348Z,22.50
2022-08-05T03:25:33.444Z,22.40
2022-08-05T03:28:09.071Z,22.40
2022-08-05T03:30:38.277Z,22.40
2022-08-05T03:33:08.385Z,22.30
2022-08-05T03:35:41.206Z,22.30
2022-08-05T03:38:11.500Z,22.30
2022-08-05T03:40:44.916Z,22.30
2022-08-05T03:43:58.688Z,22.20
2022-08-05T03:46:01.648Z,22.20
2022-08-05T03:48:30.192Z,22.30
2022-08-05T03:52:37.588Z,22.20
2022-08-05T03:55:52.656Z,22.00
2022-08-05T03:56:51.309Z,21.80
2022-08-05T03:59:26.112Z,21.80
2022-08-05T04:01:59.246Z,21.70
2022-08-05T04:04:28.426Z,21.70
2022-08-05T04:06:56.053Z,21.70
2022-08-05T04:09:26.380Z,21.80
2022-08-05T04:11:56.504Z,21.70
2022-08-05T04:14:29.878Z,21.60
2022-08-05T04:17:00.216Z,21.60
2022-08-05T04:19:29.343Z,21.60
2022-08-05T04:22:09.812Z,21.50
2022-08-05T04:24:52.950Z,21.50
2022-08-05T04:27:42.161Z,21.50
2022-08-05T04:30:08.534Z,21.50
2022-08-05T04:32:36.386Z,21.50
2022-08-05T04:35:04.647Z,21.60
2022-08-05T04:38:00.545Z,21.60
2022-08-05T04:40:20.047Z,21.60
2022-08-05T04:42:46.976Z,21.50
2022-08-05T04:45:22.953Z,21.50
2022-08-05T04:48:18.512Z,21.60
2022-08-05T04:51:02.696Z,21.50
2022-08-05T04:53:38.926Z,21.50
2022-08-05T04:56:33.626Z,21.40
2022-08-05T04:58:56.701Z,21.40
2022-08-05T05:01:33.796Z,21.40
2022-08-05T05:04:10.834Z,21.30
2022-08-05T05:06:44.423Z,21.30
2022-08-05T05:09:13.326Z,21.40
2022-08-05T05:11:55.541Z,21.50
2022-08-05T05:14:31.234Z,21.50
2022-08-05T05:16:59.806Z,21.50
2022-08-05T05:19:36.433Z,21.50
2022-08-05T05:22:23.888Z,21.60
2022-08-05T05:24:58.091Z,21.60
2022-08-05T05:27:45.015Z,21.70
2022-08-05T05:30:29.032Z,21.80
2022-08-05T05:33:00.710Z,22.00
2022-08-05T05:35:34.266Z,22.20
2022-08-05T05:38:06.434Z,22.40
2022-08-05T05:40:36.577Z,22.60
2022-08-05T05:43:03.463Z,22.80
2022-08-05T05:45:30.880Z,23.00
2022-08-05T05:48:06.555Z,23.20
2022-08-05T05:50:41.317Z,23.30
2022-08-05T05:53:22.550Z,23.40
2022-08-05T05:55:52.385Z,23.60
2022-08-05T05:58:30.374Z,23.60
2022-08-05T06:01:12.767Z,23.70
2022-08-05T06:04:01.707Z,23.80
2022-08-05T06:06:33.025Z,24.00
2022-08-05T06:09:03.846Z,24.10
2022-08-05T06:11:34.435Z,24.30
2022-08-05T06:14:02.149Z,24.50
2022-08-05T06:16:36.980Z,24.60
2022-08-05T06:19:07.429Z,24.70
2022-08-05T06:21:38.393Z,24.90
2022-08-05T06:24:11.372Z,24.90
2022-08-05T06:26:51.049Z,25.10
2022-08-05T06:29:25.185Z,25.30
2022-08-05T06:32:26.358Z,25.40
2022-08-05T06:34:57.117Z,25.50
2022-08-05T06:37:56.182Z,25.60
2022-08-05T06:40:18.213Z,25.70
2022-08-05T06:42:52.273Z,25.80
2022-08-05T06:45:44.380Z,25.70
2022-08-05T06:48:44.294Z,25.90
2022-08-05T06:50:56.155Z,26.10
2022-08-05T06:53:27.918Z,26.10
2022-08-05T06:55:58.959Z,26.20
2022-08-05T06:58:29.733Z,26.20
2022-08-05T07:01:03.499Z,26.20
2022-08-05T07:03:32.946Z,26.40
2022-08-05T07:06:05.886Z,26.40
2022-08-05T07:08:47.906Z,26.50
2022-08-05T07:11:22.192Z,26.70
2022-08-05T07:14:20.126Z,26.90
2022-08-05T07:17:57.054Z,27.00
2022-08-05T07:22:35.761Z,27.30
2022-08-05T07:25:22.065Z,27.30
2022-08-05T07:27:58.271Z,27.30
2022-08-05T07:30:38.503Z,27.40
2022-08-05T07:33:15.630Z,27.40
2022-08-05T07:36:04.715Z,27.50
2022-08-05T07:38:33.758Z,27.50
2022-08-05T07:42:09.175Z,27.60
2022-08-05T07:43:59.003Z,27.70
2022-08-05T07:46:27.768Z,27.70
2022-08-05T07:49:02.099Z,27.70
2022-08-05T07:51:53.199Z,27.80
2022-08-05T07:54:33.288Z,28.00
2022-08-05T07:57:18.113Z,28.00
2022-08-05T07:59:49.346Z,28.10
2022-08-05T08:02:19.699Z,28.20
2022-08-05T08:04:54.951Z,28.20
2022-08-05T08:07:23.307Z,28.30
2022-08-05T08:09:52.914Z,28.40
2022-08-05T08:12:37.318Z,28.20
2022-08-05T08:15:15.348Z,28.00
2022-08-05T08:17:52.901Z,27.90
2022-08-05T08:21:00.666Z,28.20
2022-08-05T08:23:11.583Z,28.60
2022-08-05T08:26:00.653Z,28.90
2022-08-05T08:28:36.746Z,29.00
2022-08-05T08:31:18.171Z,29.10
2022-08-05T08:33:46.869Z,29.40
2022-08-05T08:36:38.384Z,29.60
2022-08-05T08:39:06.862Z,29.70
2022-08-05T08:41:51.288Z,29.50
2022-08-05T08:45:21.058Z,29.40
2022-08-05T08:47:47.261Z,29.60
2022-08-05T08:50:32.978Z,30.10
2022-08-05T08:52:54.160Z,30.50
2022-08-05T08:56:01.652Z,31.00
2022-08-05T08:58:13.122Z,31.30
2022-08-05T09:00:40.951Z,31.50
2022-08-05T09:03:10.459Z,31.50
2022-08-05T09:05:38.707Z,31.50
2022-08-05T09:08:26.527Z,31.40
2022-08-05T09:10:54.627Z,31.50
2022-08-05T09:13:23.466Z,31.30
2022-08-05T09:15:51.482Z,31.30
2022-08-05T09:18:18.740Z,31.30
2022-08-05T09:20:47.107Z,31.10
2022-08-05T09:23:21.556Z,31.10
2022-08-05T09:26:02.841Z,31.00
2022-08-05T09:28:34.013Z,30.80
2022-08-05T09:32:39.098Z,30.90
2022-08-05T09:34:02.590Z,30.90
2022-08-05T09:36:55.602Z,31.10
2022-08-05T09:39:42.016Z,31.40
2022-08-05T09:42:23.436Z,31.50
2022-08-05T09:44:56.565Z,31.40
2022-08-05T09:47:34.924Z,31.10
2022-08-05T09:50:13.786Z,31.30
2022-08-05T09:52:45.835Z,31.70
2022-08-05T09:55:57.427Z,32.00
2022-08-05T09:58:00.436Z,32.20
2022-08-05T10:00:30.638Z,32.30
2022-08-05T10:02:59.003Z,32.50
2022-08-05T10:05:28.642Z,32.70
2022-08-05T10:08:35.510Z,32.70
2022-08-05T10:10:54.281Z,32.70
2022-08-05T10:13:43.993Z,32.80
2022-08-05T10:16:41.810Z,32.50
2022-08-05T10:19:23.445Z,32.90
2022-08-05T10:21:59.157Z,33.10
2022-08-05T10:24:27.009Z,33.00
2022-08-05T10:27:00.450Z,33.40
2022-08-05T10:30:41.263Z,33.90
2022-08-05T10:32:53.354Z,34.30
2022-08-05T10:35:04.947Z,34.30
2022-08-05T10:37:40.514Z,34.40
2022-08-05T10:40:40.636Z,34.60
2022-08-05T10:43:36.787Z,34.50
2022-08-05T10:46:08.118Z,34.10
2022-08-05T10:48:58.138Z,33.90
2022-08-05T10:52:00.399Z,33.70
2022-08-05T10:54:56.855Z,33.90
2022-08-05T10:57:31.001Z,34.20
2022-08-05T11:00:18.584Z,34.30
2022-08-05T11:03:23.747Z,34.20
2022-08-05T11:06:15.266Z,34.30
2022-08-05T11:09:32.501Z,34.50
2022-08-05T11:12:37.434Z,34.90
2022-08-05T11:16:01.008Z,34.70
2022-08-05T11:18:34.268Z,34.60
2022-08-05T11:21:06.244Z,34.70
2022-08-05T11:24:04.449Z,35.00
2022-08-05T11:26:32.609Z,35.10
2022-08-05T11:29:13.916Z,34.70
2022-08-05T11:31:58.790Z,34.50
2022-08-05T11:34:39.389Z,34.60
2022-08-05T11:38:30.407Z,35.20
2022-08-05T11:40:00.733Z,35.70
2022-08-05T11:42:37.760Z,36.20
2022-08-05T11:45:14.189Z,36.10
2022-08-05T11:47:50.639Z,36.00
2022-08-05T11:50:22.450Z,35.80
2022-08-05T11:52:52.048Z,35.90
2022-08-05T11:55:21.492Z,36.40
2022-08-05T11:58:11.052Z,36.70
2022-08-05T12:00:41.386Z,36.90
2022-08-05T12:03:29.651Z,36.90
2022-08-05T12:06:01.804Z,37.00
2022-08-05T12:08:31.461Z,36.70
2022-08-05T12:11:05.503Z,36.50
2022-08-05T12:13:48.731Z,36.20
2022-08-05T12:16:19.101Z,35.80
2022-08-05T12:18:49.542Z,35.90
2022-08-05T12:21:39.103Z,35.70
2022-08-05T12:24:17.283Z,35.70
2022-08-05T12:26:44.535Z,36.30
2022-08-05T12:29:17.834Z,36.60
2022-08-05T12:31:57.109Z,36.70
2022-08-05T12:34:28.694Z,36.70
2022-08-05T12:37:10.742Z,36.40
2022-08-05T12:39:39.538Z,36.50
2022-08-05T12:42:15.966Z,36.40
2022-08-05T12:44:44.681Z,36.20
2022-08-05T12:47:17.242Z,36.60
2022-08-05T12:50:03.538Z,36.90
2022-08-05T12:52:41.874Z,37.30
2022-08-05T12:55:22.344Z,37.80
2022-08-05T12:58:48.882Z,37.60
2022-08-05T13:02:00.692Z,37.70
2022-08-05T13:03:32.596Z,37.20
2022-08-05T13:06:06.653Z,37.00
2022-08-05T13:08:38.749Z,36.70
2022-08-05T13:11:07.889Z,36.90
2022-08-05T13:14:05.103Z,37.20
2022-08-05T13:16:27.982Z,37.40
2022-08-05T13:18:58.544Z,36.90
2022-08-05T13:21:28.326Z,37.10
2022-08-05T13:24:06.267Z,37.30
2022-08-05T13:26:36.128Z,37.50
2022-08-05T13:29:05.213Z,37.80
2022-08-05T13:32:03.411Z,37.40
2022-08-05T13:34:22.020Z,37.00
2022-08-05T13:36:53.543Z,36.60
2022-08-05T13:40:14.008Z,36.70
2022-08-05T13:42:14.551Z,36.50
2022-08-05T13:44:46.023Z,36.50
2022-08-05T13:47:36.089Z,36.50
2022-08-05T13:50:04.624Z,36.50
2022-08-05T13:52:35.299Z,36.60
2022-08-05T13:55:07.350Z,36.50
2022-08-05T13:57:50.678Z,36.20
2022-08-05T14:00:26.975Z,35.70
2022-08-05T14:02:56.993Z,35.50
2022-08-05T14:05:29.502Z,35.40
2022-08-05T14:08:21.168Z,35.30
2022-08-05T14:11:03.249Z,35.30
2022-08-05T14:13:42.333Z,35.10
2022-08-05T14:16:11.520Z,35.00
2022-08-05T14:18:38.888Z,34.90
2022-08-05T14:22:07.455Z,34.90
2022-08-05T14:23:53.510Z,35.00
2022-08-05T14:26:36.995Z,34.80
2022-08-05T14:29:16.683Z,34.70
2022-08-05T14:32:03.945Z,34.40
2022-08-05T14:34:35.467Z,34.00
2022-08-05T14:37:04.390Z,33.60
2022-08-05T14:39:50.144Z,33.20
2022-08-05T14:42:29.304Z,32.90
2022-08-05T14:44:56.828Z,32.60
2022-08-05T14:48:03.360Z,32.30
2022-08-05T14:50:18.369Z,32.10
2022-08-05T14:52:57.832Z,32.00
2022-08-05T14:55:39.334Z,32.30
2022-08-05T14:58:11.638Z,32.50
2022-08-05T15:00:59.467Z,32.50
2022-08-05T15:03:33.769Z,32.30
2022-08-05T15:06:12.934Z,32.20
2022-08-05T15:08:59.213Z,32.40
2022-08-05T15:11:52.864Z,32.60
2022-08-05T15:14:33.952Z,32.60
2022-08-05T15:17:04.151Z,32.50
2022-08-05T15:19:33.048Z,32.60
2022-08-05T15:22:01.482Z,32.30
2022-08-05T15:24:29.640Z,32.00
2022-08-05T15:26:57.946Z,31.70
2022-08-05T15:29:29.907Z,31.20
2022-08-05T15:32:02.224Z,30.70
2022-08-05T15:34:32.281Z,30.50
2022-08-05T15:37:07.033Z,30.60
2022-08-05T15:41:01.708Z,30.70
2022-08-05T15:42:56.273Z,30.70
2022-08-05T15:45:16.436Z,30.50
2022-08-05T15:47:46.343Z,30.20
2022-08-05T15:50:15.988Z,30.10
2022-08-05T15:52:53.640Z,30.00
2022-08-05T15:55:24.934Z,30.10
2022-08-05T15:58:09.204Z,29.90
2022-08-05T16:00:50.601Z,29.90
2022-08-05T16:03:33.851Z,30.00
2022-08-05T16:06:01.282Z,30.30
2022-08-05T16:08:30.384Z,30.60
2022-08-05T16:10:58.618Z,30.90
2022-08-05T16:13:34.352Z,30.60
2022-08-05T16:16:06.441Z,30.10
2022-08-05T16:18:34.095Z,30.20
2022-08-05T16:21:04.163Z,30.40
2022-08-05T16:23:33.008Z,30.60
2022-08-05T16:26:20.105Z,30.60
2022-08-05T16:28:53.606Z,30.70
2022-08-05T16:31:22.481Z,30.30
2022-08-05T16:33:52.184Z,30.00
2022-08-05T16:36:23.868Z,30.00
2022-08-05T16:38:54.530Z,29.80
2022-08-05T16:42:15.369Z,29.60
2022-08-05T16:44:12.021Z,29.50
2022-08-05T16:46:41.360Z,29.40
2022-08-05T16:49:23.304Z,29.40
2022-08-05T16:51:51.217Z,29.50
2022-08-05T16:54:28.681Z,29.30
2022-08-05T16:56:59.008Z,29.20
2022-08-05T16:59:27.861Z,28.80
2022-08-05T17:01:58.074Z,28.70
2022-08-05T17:04:27.808Z,28.80
2022-08-05T17:07:01.235Z,28.90
2022-08-05T17:09:29.879Z,29.10
2022-08-05T17:11:59.927Z,29.00
2022-08-05T17:14:37.290Z,28.80
2022-08-05T17:17:14.567Z,28.70
2022-08-05T17:19:45.325Z,28.60
2022-08-05T17:22:24.712Z,28.60
2022-08-05T17:24:58.287Z,28.70
2022-08-05T17:27:33.501Z,28.80
2022-08-05T17:30:12.202Z,28.70
2022-08-05T17:32:46.352Z,28.80
2022-08-05T17:35:15.661Z,29.00
2022-08-05T17:37:48.363Z,28.90
2022-08-05T17:40:18.371Z,28.80
2022-08-05T17:42:52.192Z,28.70
2022-08-05T17:45:22.913Z,28.30
2022-08-05T17:47:54.848Z,28.10
2022-08-05T17:50:28.299Z,27.70
2022-08-05T17:53:01.729Z,27.40
2022-08-05T17:55:37.931Z,27.30
2022-08-05T17:58:09.449Z,27.00
2022-08-05T18:00:39.868Z,26.60
2022-08-05T18:03:12.896Z,26.40
2022-08-05T18:05:55.415Z,26.30
2022-08-05T18:08:30.499Z,26.30
2022-08-05T18:10:57.426Z,26.20
2022-08-05T18:13:25.677Z,26.20
2022-08-05T18:15:53.108Z,26.10
2022-08-05T18:18:21.649Z,26.20
2022-08-05T18:20:53.320Z,26.20
2022-08-05T18:23:22.406Z,26.20
2022-08-05T18:25:57.832Z,26.10
2022-08-05T18:28:28.220Z,26.00
2022-08-05T18:30:55.484Z,25.90
2022-08-05T18:33:24.065Z,25.90
2022-08-05T18:36:03.968Z,25.90
2022-08-05T18:38:37.031Z,25.80
2022-08-05T18:41:56.853Z,25.70
2022-08-05T18:43:52.343Z,25.70
2022-08-05T18:46:20.420Z,25.80
2022-08-05T18:48:51.937Z,25.70
2022-08-05T18:52:06.205Z,25.60
2022-08-05T18:54:31.285Z,25.40
2022-08-05T18:57:01.195Z,25.20
2022-08-05T18:59:42.777Z,24.80
2022-08-05T19:02:27.747Z,24.70
2022-08-05T19:05:02.769Z,24.70
2022-08-05T19:07:47.978Z,24.60
2022-08-05T19:10:18.654Z,24.60
2022-08-05T19:12:53.663Z,24.70
2022-08-05T19:15:45.059Z,24.70
2022-08-05T19:18:09.614Z,24.70
2022-08-05T19:20:41.509Z,24.80
2022-08-05T19:24:04.119Z,24.80
2022-08-05T19:26:01.616Z,24.80
2022-08-05T19:28:34.660Z,24.80
2022-08-05T19:31:04.971Z,24.80
2022-08-05T19:33:36.134Z,24.80
2022-08-05T19:36:06.470Z,24.60
2022-08-05T19:38:36.717Z,24.50
2022-08-05T19:41:09.138Z,24.60
2022-08-05T19:44:06.549Z,24.60
2022-08-05T19:46:30.990Z,24.50
2022-08-05T19:49:01.215Z,24.30
2022-08-05T19:52:05.639Z,24.20
2022-08-05T19:54:25.564Z,24.10
2022-08-05T19:56:59.865Z,24.10
2022-08-05T20:00:00.784Z,23.90
2022-08-05T20:02:18.096Z,23.80
2022-08-05T20:04:48.489Z,23.80
2022-08-05T20:07:15.866Z,23.70
2022-08-05T20:10:11.773Z,23.80
2022-08-05T20:12:47.789Z,23.90
2022-08-05T20:15:22.927Z,23.90
2022-08-05T20:18:10.769Z,23.90
2022-08-05T20:20:51.971Z,23.90
2022-08-05T20:23:23.255Z,23.90
2022-08-05T20:25:52.275Z,23.90
2022-08-05T20:28:19.500Z,23.80
2022-08-05T20:30:46.631Z,23.80
2022-08-05T20:33:16.524Z,23.80
2022-08-05T20:35:45.668Z,23.70
2022-08-05T20:38:20.139Z,23.60
2022-08-05T20:40:55.483Z,23.60
2022-08-05T20:43:32.322Z,23.50
2022-08-05T20:46:24.864Z,23.40
2022-08-05T20:48:52.136Z,23.20
2022-08-05T20:51:19.100Z,23.10
2022-08-05T20:53:56.389Z,22.90
2022-08-05T20:56:29.769Z,22.70
2022-08-05T20:59:00.070Z,22.40
2022-08-05T21:01:41.537Z,22.00
2022-08-05T21:04:10.538Z,21.60
2022-08-05T21:06:45.921Z,21.50
2022-08-05T21:09:14.461Z,21.40
2022-08-05T21:12:09.901Z,21.40
2022-08-05T21:14:35.334Z,21.30
2022-08-05T21:17:05.170Z,21.20
2022-08-05T21:19:46.669Z,21.10
2022-08-05T21:22:17.775Z,21.10
2022-08-05T21:24:48.844Z,21.10
2022-08-05T21:27:18.588Z,21.10
2022-08-05T21:29:48.220Z,21.10
2022-08-05T21:32:19.921Z,21.20
2022-08-05T21:35:06.950Z,21.10
2022-08-05T21:37:35.030Z,21.10
2022-08-05T21:40:13.081Z,21.10
2022-08-05T21:42:44.764Z,21.10
2022-08-05T21:45:24.221Z,21.00
2022-08-05T21:47:56.774Z,21.00
2022-08-05T21:50:25.911Z,20.90
2022-08-05T21:52:53.437Z,20.80
2022-08-05T21:55:42.768Z,20.80
2022-08-05T21:58:10.236Z,20.80
2022-08-05T22:00:38.741Z,20.80
2022-08-05T22:03:09.786Z,20.90
2022-08-05T22:05:48.701Z,21.00
2022-08-05T22:08:22.480Z,21.00
2022-08-05T22:10:51.611Z,20.90
2022-08-05T22:14:20.032Z,20.90
2022-08-05T22:16:26.033Z,20.90
2022-08-05T22:18:54.691Z,20.80
2022-08-05T22:21:25.875Z,20.80
2022-08-05T22:24:13.202Z,20.80
2022-08-05T22:27:17.578Z,20.80
2022-08-05T22:29:44.686Z,20.80
2022-08-05T22:32:17.249Z,20.80
2022-08-05T22:34:45.804Z,20.80
2022-08-05T22:37:13.011Z,20.80
2022-08-05T22:39:40.097Z,20.80
2022-08-05T22:42:12.380Z,20.80
2022-08-05T22:44:48.439Z,20.80
2022-08-05T22:47:29.237Z,20.80
2022-08-05T22:50:21.846Z,20.80
2022-08-05T22:52:45.029Z,20.70
2022-08-05T22:55:19.040Z,20.80
2022-08-05T22:57:49.064Z,20.80
2022-08-05T23:00:18.197Z,20.80
2022-08-05T23:02:49.350Z,20.80
2022-08-05T23:05:17.274Z,20.80
2022-08-05T23:07:48.493Z,20.80
2022-08-05T23:10:19.942Z,20.80
2022-08-05T23:12:51.357Z,20.70
2022-08-05T23:15:21.480Z,20.70
2022-08-05T23:18:02.347Z,20.70
2022-08-05T23:20:37.082Z,20.70
2022-08-05T23:23:08.430Z,20.70
2022-08-05T23:25:52.672Z,20.70
2022-08-05T23:28:27.741Z,20.70
2022-08-05T23:31:16.387Z,20.70
2022-08-05T23:34:05.175Z,20.70
2022-08-05T23:36:39.803Z,20.70
2022-08-05T23:39:17.357Z,20.60
2022-08-05T23:41:58.526Z,20.60
2022-08-05T23:44:28.037Z,20.60
2022-08-05T23:47:02.567Z,20.50
2022-08-05T23:49:42.866Z,20.60
2022-08-05T23:52:32.016Z,20.40
2022-08-05T23:55:05.235Z,20.30
2022-08-05T23:57:34.182Z,20.30
